Aérodrome :
LOGIN :

S'inscrire | Disclaimer

   EN    FR    IT 

 










Légende :    VFR   VFR Marginal   IFR   IFR Intensif   IFR Très Intensif
Visi : 
Plafond : 
>= 8 km
>= 3000ft
5 à 8 km
1000 à 3000 ft
1500m à 5 km
500 à 1000 ft
800 à 1500m
200 à 500 ft
< 800m
< 200 ft
Symboles :   Orages  Brouillard  Fortes neiges  Fortes précipitations  Vent > 20 kt
SIGMETs :   Divers  Orages  Givrage  Turbulence  Onde Orograph.  Cendres Volcan.







- Altitude de l'aérodrome : 479 ft
- Code IATA : DOL
- Voir les cartes d'approche


LFRG - Deauville

DERNIER METAR :
  • 171830Z AUTO 06004KT 030V090 CAVOK 13/11 Q1016 NOSIG

METARs EXPIRÉS :
  • 171800Z AUTO 06005KT 030V090 CAVOK 14/11 Q1016 NOSIG
  • 171730Z AUTO 06004KT 030V090 CAVOK 14/11 Q1016 NOSIG
  • 171700Z AUTO 06004KT 030V090 CAVOK 15/11 Q1016 NOSIG
  • 171630Z AUTO 06004KT 030V090 9999 SCT016 16/11 Q1016 NOSIG
  • 171600Z AUTO 08004KT 030V130 9999 OVC017 16/11 Q1017 NOSIG

TAF TAF LFRG
Valide du 17 à 15h jusqu'au 18 à 00h UTC


171400Z 1715/1724 09010KT 9999 BKN025
BECMG 1722/1724 12010KT
TEMPO 1722/1724 BKN005
ATIS : +33 2 31 65 65 36
Pas de NOTAMs connus pour ce terrain.



MET'MAP, la Météo Aéronautique d'un coup d'oeil ! - Copyright ORBIFLY Décembre 2007 - Disclaimer

ORBIFLY MET'MAP TEAM :

Programmation & Développement : Alexandra Zaïnal
Conception & Développement : Baudouin d'Aumeries
Co-Programmation & Développement : Marc-Olivier Méhu
Soutien technique & logistique : Manuel Goepfert

Contact : metmap@orbifly.com




SOURCES & CREDITS :

   NOAA